Terminal Aerodrome Forecast
Issued by NWS Grand Forks, ND

Home | Current Version | Previous Version | Text Only | Print | Product List | Glossary Off
Versions: 1 2 3 4 5 6 7 8 9 10 11 12 13 14 15 16 17

310
FTUS43 KFGF 261132
TAFGFK
TAF
KGFK 261132Z 2612/2712 29006KT P6SM SKC
     FM261700 31008KT P6SM FEW050
     FM262000 30008KT P6SM FEW200
     FM270000 27006KT P6SM SKC
     FM270200 22006KT P6SM SKC
     FM270400 19006KT P6SM SKC=

USA.gov is the U.S. government's official web portal to all federal, state and local government web resources and services.